sensor_id;sensor_type;location;lat;lon;timestamp;P1;durP1;ratioP1;P2;durP2;ratioP2
13386;SDS011;6763;48.524;9.044;2022-08-21T00:00:11;1.58;;;1.48;;
13386;SDS011;6763;48.524;9.044;2022-08-21T00:02:44;1.90;;;1.33;;
13386;SDS011;6763;48.524;9.044;2022-08-21T00:05:12;1.80;;;1.70;;
13386;SDS011;6763;48.524;9.044;2022-08-21T00:07:37;1.42;;;1.33;;
13386;SDS011;6763;48.524;9.044;2022-08-21T00:10:03;1.67;;;1.58;;
13386;SDS011;6763;48.524;9.044;2022-08-21T00:12:29;1.60;;;1.50;;
13386;SDS011;6763;48.524;9.044;2022-08-21T00:14:56;1.60;;;1.38;;
13386;SDS011;6763;48.524;9.044;2022-08-21T00:17:21;1.50;;;1.25;;
13386;SDS011;6763;48.524;9.044;2022-08-21T00:19:47;2.20;;;1.30;;
13386;SDS011;6763;48.524;9.044;2022-08-21T00:22:12;1.60;;;1.50;;
13386;SDS011;6763;48.524;9.044;2022-08-21T00:24:38;2.67;;;1.55;;
13386;SDS011;6763;48.524;9.044;2022-08-21T00:27:03;1.65;;;1.55;;
13386;SDS011;6763;48.524;9.044;2022-08-21T00:29:29;1.60;;;1.50;;
13386;SDS011;6763;48.524;9.044;2022-08-21T00:31:54;1.90;;;1.70;;
13386;SDS011;6763;48.524;9.044;2022-08-21T00:34:19;1.60;;;1.50;;
13386;SDS011;6763;48.524;9.044;2022-08-21T00:36:45;1.67;;;1.58;;
13386;SDS011;6763;48.524;9.044;2022-08-21T00:39:10;1.70;;;1.55;;
13386;SDS011;6763;48.524;9.044;2022-08-21T00:41:36;1.98;;;1.80;;
13386;SDS011;6763;48.524;9.044;2022-08-21T00:44:03;2.40;;;1.77;;
13386;SDS011;6763;48.524;9.044;2022-08-21T00:46:29;2.35;;;1.73;;
13386;SDS011;6763;48.524;9.044;2022-08-21T00:48:55;1.45;;;1.35;;
13386;SDS011;6763;48.524;9.044;2022-08-21T00:54:15;1.80;;;1.70;;
13386;SDS011;6763;48.524;9.044;2022-08-21T00:56:43;2.50;;;1.63;;
13386;SDS011;6763;48.524;9.044;2022-08-21T00:59:09;1.63;;;1.52;;
13386;SDS011;6763;48.524;9.044;2022-08-21T01:01:35;1.83;;;1.65;;
13386;SDS011;6763;48.524;9.044;2022-08-21T01:04:00;2.85;;;1.80;;
13386;SDS011;6763;48.524;9.044;2022-08-21T01:06:26;1.98;;;1.52;;
13386;SDS011;6763;48.524;9.044;2022-08-21T01:08:52;1.92;;;1.73;;
13386;SDS011;6763;48.524;9.044;2022-08-21T01:11:18;2.72;;;1.83;;
13386;SDS011;6763;48.524;9.044;2022-08-21T01:13:43;2.00;;;1.80;;
13386;SDS011;6763;48.524;9.044;2022-08-21T01:16:12;2.08;;;1.80;;
13386;SDS011;6763;48.524;9.044;2022-08-21T01:18:40;2.10;;;1.90;;
13386;SDS011;6763;48.524;9.044;2022-08-21T01:21:07;2.97;;;1.88;;
13386;SDS011;6763;48.524;9.044;2022-08-21T01:23:36;2.42;;;1.80;;
13386;SDS011;6763;48.524;9.044;2022-08-21T01:26:03;1.90;;;1.70;;
13386;SDS011;6763;48.524;9.044;2022-08-21T01:28:30;2.10;;;1.90;;
13386;SDS011;6763;48.524;9.044;2022-08-21T01:30:59;2.00;;;1.80;;
13386;SDS011;6763;48.524;9.044;2022-08-21T01:33:27;1.92;;;1.73;;
13386;SDS011;6763;48.524;9.044;2022-08-21T01:35:53;2.50;;;2.30;;
13386;SDS011;6763;48.524;9.044;2022-08-21T01:38:18;2.30;;;2.10;;
13386;SDS011;6763;48.524;9.044;2022-08-21T01:40:44;2.50;;;2.25;;
13386;SDS011;6763;48.524;9.044;2022-08-21T01:43:09;2.00;;;1.80;;
13386;SDS011;6763;48.524;9.044;2022-08-21T01:45:35;2.33;;;2.13;;
13386;SDS011;6763;48.524;9.044;2022-08-21T01:48:00;2.45;;;2.25;;
13386;SDS011;6763;48.524;9.044;2022-08-21T01:50:27;2.30;;;2.10;;
13386;SDS011;6763;48.524;9.044;2022-08-21T01:52:52;2.33;;;2.13;;
13386;SDS011;6763;48.524;9.044;2022-08-21T01:55:18;2.60;;;2.35;;
13386;SDS011;6763;48.524;9.044;2022-08-21T01:57:45;2.70;;;2.15;;
13386;SDS011;6763;48.524;9.044;2022-08-21T02:00:12;3.28;;;2.20;;
13386;SDS011;6763;48.524;9.044;2022-08-21T02:02:39;2.45;;;2.22;;
13386;SDS011;6763;48.524;9.044;2022-08-21T02:05:06;2.20;;;2.00;;
13386;SDS011;6763;48.524;9.044;2022-08-21T02:07:40;2.90;;;2.60;;
13386;SDS011;6763;48.524;9.044;2022-08-21T02:10:11;2.55;;;2.20;;
13386;SDS011;6763;48.524;9.044;2022-08-21T02:12:39;2.40;;;2.20;;
13386;SDS011;6763;48.524;9.044;2022-08-21T02:15:05;2.08;;;1.90;;
13386;SDS011;6763;48.524;9.044;2022-08-21T02:17:44;3.45;;;3.03;;
13386;SDS011;6763;48.524;9.044;2022-08-21T02:20:16;3.65;;;2.38;;
13386;SDS011;6763;48.524;9.044;2022-08-21T02:22:44;3.88;;;2.70;;
13386;SDS011;6763;48.524;9.044;2022-08-21T02:25:10;3.17;;;2.88;;
13386;SDS011;6763;48.524;9.044;2022-08-21T02:27:39;3.50;;;2.88;;
13386;SDS011;6763;48.524;9.044;2022-08-21T02:30:06;2.78;;;2.58;;
13386;SDS011;6763;48.524;9.044;2022-08-21T02:32:32;3.42;;;2.90;;
13386;SDS011;6763;48.524;9.044;2022-08-21T02:34:57;4.95;;;2.90;;
13386;SDS011;6763;48.524;9.044;2022-08-21T02:37:22;4.20;;;2.65;;
13386;SDS011;6763;48.524;9.044;2022-08-21T02:39:48;3.15;;;2.78;;
13386;SDS011;6763;48.524;9.044;2022-08-21T02:42:14;3.15;;;2.70;;
13386;SDS011;6763;48.524;9.044;2022-08-21T02:44:40;3.40;;;3.10;;
13386;SDS011;6763;48.524;9.044;2022-08-21T02:47:06;3.22;;;2.92;;
13386;SDS011;6763;48.524;9.044;2022-08-21T02:49:32;4.43;;;2.90;;
13386;SDS011;6763;48.524;9.044;2022-08-21T02:51:57;3.40;;;2.92;;
13386;SDS011;6763;48.524;9.044;2022-08-21T02:54:23;2.63;;;2.38;;
13386;SDS011;6763;48.524;9.044;2022-08-21T02:56:48;4.07;;;2.92;;
13386;SDS011;6763;48.524;9.044;2022-08-21T02:59:13;6.85;;;2.90;;
13386;SDS011;6763;48.524;9.044;2022-08-21T03:01:39;3.33;;;3.03;;
13386;SDS011;6763;48.524;9.044;2022-08-21T03:04:04;4.57;;;2.92;;
13386;SDS011;6763;48.524;9.044;2022-08-21T03:06:29;3.47;;;2.78;;
13386;SDS011;6763;48.524;9.044;2022-08-21T03:08:55;2.97;;;2.60;;
13386;SDS011;6763;48.524;9.044;2022-08-21T03:11:20;3.78;;;2.65;;
13386;SDS011;6763;48.524;9.044;2022-08-21T03:13:46;3.28;;;2.97;;
13386;SDS011;6763;48.524;9.044;2022-08-21T03:16:11;2.83;;;2.63;;
13386;SDS011;6763;48.524;9.044;2022-08-21T03:18:37;3.70;;;2.67;;
13386;SDS011;6763;48.524;9.044;2022-08-21T03:21:03;3.75;;;2.65;;
13386;SDS011;6763;48.524;9.044;2022-08-21T03:23:29;3.13;;;2.75;;
13386;SDS011;6763;48.524;9.044;2022-08-21T03:25:55;4.28;;;2.65;;
13386;SDS011;6763;48.524;9.044;2022-08-21T03:28:21;2.40;;;2.20;;
13386;SDS011;6763;48.524;9.044;2022-08-21T03:30:48;3.95;;;2.63;;
13386;SDS011;6763;48.524;9.044;2022-08-21T03:33:15;3.53;;;2.58;;
13386;SDS011;6763;48.524;9.044;2022-08-21T03:35:45;2.60;;;2.40;;
13386;SDS011;6763;48.524;9.044;2022-08-21T03:38:15;3.97;;;2.83;;
13386;SDS011;6763;48.524;9.044;2022-08-21T03:40:42;4.70;;;2.70;;
13386;SDS011;6763;48.524;9.044;2022-08-21T03:43:08;3.10;;;2.80;;
13386;SDS011;6763;48.524;9.044;2022-08-21T03:45:34;3.15;;;2.80;;
13386;SDS011;6763;48.524;9.044;2022-08-21T03:48:01;3.53;;;3.22;;
13386;SDS011;6763;48.524;9.044;2022-08-21T03:50:30;4.40;;;2.65;;
13386;SDS011;6763;48.524;9.044;2022-08-21T03:52:58;3.55;;;3.20;;
13386;SDS011;6763;48.524;9.044;2022-08-21T03:55:24;3.38;;;2.97;;
13386;SDS011;6763;48.524;9.044;2022-08-21T03:57:51;4.30;;;3.22;;
13386;SDS011;6763;48.524;9.044;2022-08-21T04:00:16;3.30;;;3.00;;
13386;SDS011;6763;48.524;9.044;2022-08-21T04:02:43;3.35;;;3.03;;
13386;SDS011;6763;48.524;9.044;2022-08-21T04:05:09;5.28;;;3.40;;
13386;SDS011;6763;48.524;9.044;2022-08-21T04:07:37;5.70;;;3.03;;
13386;SDS011;6763;48.524;9.044;2022-08-21T04:10:04;5.07;;;3.25;;
13386;SDS011;6763;48.524;9.044;2022-08-21T04:12:31;3.92;;;2.92;;
13386;SDS011;6763;48.524;9.044;2022-08-21T04:14:56;4.95;;;2.85;;
13386;SDS011;6763;48.524;9.044;2022-08-21T04:17:22;2.78;;;2.33;;
13386;SDS011;6763;48.524;9.044;2022-08-21T04:19:47;8.52;;;2.60;;
13386;SDS011;6763;48.524;9.044;2022-08-21T04:22:14;4.68;;;2.10;;
13386;SDS011;6763;48.524;9.044;2022-08-21T04:24:39;5.45;;;1.88;;
13386;SDS011;6763;48.524;9.044;2022-08-21T04:27:05;2.38;;;2.13;;
13386;SDS011;6763;48.524;9.044;2022-08-21T04:29:30;2.75;;;2.00;;
13386;SDS011;6763;48.524;9.044;2022-08-21T04:31:55;2.88;;;1.70;;
13386;SDS011;6763;48.524;9.044;2022-08-21T04:34:21;2.47;;;1.60;;
13386;SDS011;6763;48.524;9.044;2022-08-21T04:36:46;1.50;;;1.40;;
13386;SDS011;6763;48.524;9.044;2022-08-21T04:39:11;1.48;;;1.27;;
13386;SDS011;6763;48.524;9.044;2022-08-21T04:41:37;1.20;;;1.10;;
13386;SDS011;6763;48.524;9.044;2022-08-21T04:44:02;5.22;;;1.25;;
13386;SDS011;6763;48.524;9.044;2022-08-21T04:46:28;1.38;;;1.27;;
13386;SDS011;6763;48.524;9.044;2022-08-21T04:48:53;1.25;;;1.15;;
13386;SDS011;6763;48.524;9.044;2022-08-21T04:51:22;1.33;;;1.17;;
13386;SDS011;6763;48.524;9.044;2022-08-21T04:59:00;1.25;;;1.15;;
13386;SDS011;6763;48.524;9.044;2022-08-21T05:01:29;1.20;;;1.10;;
13386;SDS011;6763;48.524;9.044;2022-08-21T05:03:59;1.83;;;1.00;;
13386;SDS011;6763;48.524;9.044;2022-08-21T05:06:26;1.20;;;1.10;;
13386;SDS011;6763;48.524;9.044;2022-08-21T05:08:55;1.30;;;1.20;;
13386;SDS011;6763;48.524;9.044;2022-08-21T05:11:22;1.40;;;1.20;;
13386;SDS011;6763;48.524;9.044;2022-08-21T05:13:48;1.17;;;1.08;;
13386;SDS011;6763;48.524;9.044;2022-08-21T05:16:14;1.52;;;1.42;;
13386;SDS011;6763;48.524;9.044;2022-08-21T05:18:41;1.15;;;1.05;;
13386;SDS011;6763;48.524;9.044;2022-08-21T05:21:06;1.17;;;1.08;;
13386;SDS011;6763;48.524;9.044;2022-08-21T05:23:31;1.45;;;1.35;;
13386;SDS011;6763;48.524;9.044;2022-08-21T05:25:57;1.25;;;1.15;;
13386;SDS011;6763;48.524;9.044;2022-08-21T05:28:23;1.02;;;1.02;;
13386;SDS011;6763;48.524;9.044;2022-08-21T05:30:48;1.23;;;1.13;;
13386;SDS011;6763;48.524;9.044;2022-08-21T05:33:14;1.10;;;1.00;;
13386;SDS011;6763;48.524;9.044;2022-08-21T05:35:39;1.48;;;0.93;;
13386;SDS011;6763;48.524;9.044;2022-08-21T05:38:05;1.02;;;1.00;;
13386;SDS011;6763;48.524;9.044;2022-08-21T05:40:31;1.25;;;1.15;;
13386;SDS011;6763;48.524;9.044;2022-08-21T05:42:58;1.30;;;1.20;;
13386;SDS011;6763;48.524;9.044;2022-08-21T05:45:25;1.25;;;1.10;;
13386;SDS011;6763;48.524;9.044;2022-08-21T05:47:53;1.23;;;1.10;;
13386;SDS011;6763;48.524;9.044;2022-08-21T05:50:18;1.05;;;1.00;;
13386;SDS011;6763;48.524;9.044;2022-08-21T05:52:44;1.17;;;1.08;;
13386;SDS011;6763;48.524;9.044;2022-08-21T05:55:09;1.20;;;1.10;;
13386;SDS011;6763;48.524;9.044;2022-08-21T05:57:34;1.60;;;1.20;;
13386;SDS011;6763;48.524;9.044;2022-08-21T06:00:00;1.30;;;1.20;;
13386;SDS011;6763;48.524;9.044;2022-08-21T06:02:25;1.35;;;1.25;;
13386;SDS011;6763;48.524;9.044;2022-08-21T06:04:50;1.23;;;1.13;;
13386;SDS011;6763;48.524;9.044;2022-08-21T06:07:16;1.45;;;1.35;;
13386;SDS011;6763;48.524;9.044;2022-08-21T06:09:41;1.40;;;1.30;;
13386;SDS011;6763;48.524;9.044;2022-08-21T06:12:07;1.50;;;1.40;;
13386;SDS011;6763;48.524;9.044;2022-08-21T06:14:35;1.35;;;1.25;;
13386;SDS011;6763;48.524;9.044;2022-08-21T06:17:03;1.35;;;1.25;;
13386;SDS011;6763;48.524;9.044;2022-08-21T06:19:32;1.42;;;1.30;;
13386;SDS011;6763;48.524;9.044;2022-08-21T06:21:58;1.40;;;1.30;;
13386;SDS011;6763;48.524;9.044;2022-08-21T06:24:24;1.45;;;1.30;;
13386;SDS011;6763;48.524;9.044;2022-08-21T06:26:50;1.30;;;1.20;;
13386;SDS011;6763;48.524;9.044;2022-08-21T06:29:15;1.80;;;1.30;;
13386;SDS011;6763;48.524;9.044;2022-08-21T06:31:42;1.40;;;1.20;;
13386;SDS011;6763;48.524;9.044;2022-08-21T06:34:08;1.65;;;1.30;;
13386;SDS011;6763;48.524;9.044;2022-08-21T06:36:34;1.38;;;1.23;;
13386;SDS011;6763;48.524;9.044;2022-08-21T06:39:00;1.42;;;1.33;;
13386;SDS011;6763;48.524;9.044;2022-08-21T06:41:26;2.15;;;1.90;;
13386;SDS011;6763;48.524;9.044;2022-08-21T06:43:52;1.45;;;1.35;;
13386;SDS011;6763;48.524;9.044;2022-08-21T06:46:18;1.60;;;1.50;;
13386;SDS011;6763;48.524;9.044;2022-08-21T06:48:43;1.50;;;1.40;;
13386;SDS011;6763;48.524;9.044;2022-08-21T06:51:08;1.60;;;1.50;;
13386;SDS011;6763;48.524;9.044;2022-08-21T06:53:34;1.40;;;1.30;;
13386;SDS011;6763;48.524;9.044;2022-08-21T06:55:59;1.40;;;1.27;;
13386;SDS011;6763;48.524;9.044;2022-08-21T06:58:25;1.50;;;1.40;;
13386;SDS011;6763;48.524;9.044;2022-08-21T07:00:50;1.27;;;1.17;;
13386;SDS011;6763;48.524;9.044;2022-08-21T07:03:26;1.40;;;1.30;;
13386;SDS011;6763;48.524;9.044;2022-08-21T07:06:03;1.45;;;1.10;;
13386;SDS011;6763;48.524;9.044;2022-08-21T07:08:29;1.30;;;1.20;;
13386;SDS011;6763;48.524;9.044;2022-08-21T07:10:56;1.15;;;1.08;;
13386;SDS011;6763;48.524;9.044;2022-08-21T07:13:23;1.50;;;1.40;;
13386;SDS011;6763;48.524;9.044;2022-08-21T07:15:49;1.35;;;1.25;;
13386;SDS011;6763;48.524;9.044;2022-08-21T07:18:14;1.48;;;1.20;;
13386;SDS011;6763;48.524;9.044;2022-08-21T07:20:40;1.45;;;1.35;;
13386;SDS011;6763;48.524;9.044;2022-08-21T07:23:09;1.05;;;1.02;;
13386;SDS011;6763;48.524;9.044;2022-08-21T07:25:37;1.20;;;1.10;;
13386;SDS011;6763;48.524;9.044;2022-08-21T07:28:03;0.90;;;0.90;;
13386;SDS011;6763;48.524;9.044;2022-08-21T07:30:28;1.00;;;0.93;;
13386;SDS011;6763;48.524;9.044;2022-08-21T07:32:54;1.50;;;1.40;;
13386;SDS011;6763;48.524;9.044;2022-08-21T07:35:21;1.60;;;1.08;;
13386;SDS011;6763;48.524;9.044;2022-08-21T07:37:47;1.10;;;1.00;;
13386;SDS011;6763;48.524;9.044;2022-08-21T07:40:13;0.80;;;0.80;;
13386;SDS011;6763;48.524;9.044;2022-08-21T07:42:42;1.00;;;0.90;;
13386;SDS011;6763;48.524;9.044;2022-08-21T07:45:09;1.10;;;1.00;;
13386;SDS011;6763;48.524;9.044;2022-08-21T07:47:35;1.02;;;0.95;;
13386;SDS011;6763;48.524;9.044;2022-08-21T07:50:01;1.20;;;1.10;;
13386;SDS011;6763;48.524;9.044;2022-08-21T07:52:26;1.15;;;0.93;;
13386;SDS011;6763;48.524;9.044;2022-08-21T07:54:51;0.75;;;0.75;;
13386;SDS011;6763;48.524;9.044;2022-08-21T07:57:18;1.13;;;0.95;;
13386;SDS011;6763;48.524;9.044;2022-08-21T07:59:44;1.50;;;1.23;;
13386;SDS011;6763;48.524;9.044;2022-08-21T08:02:10;1.17;;;1.00;;
13386;SDS011;6763;48.524;9.044;2022-08-21T08:04:35;0.90;;;0.90;;
13386;SDS011;6763;48.524;9.044;2022-08-21T08:07:00;1.08;;;1.00;;
13386;SDS011;6763;48.524;9.044;2022-08-21T08:09:26;1.00;;;0.93;;
13386;SDS011;6763;48.524;9.044;2022-08-21T08:11:51;2.63;;;0.98;;
13386;SDS011;6763;48.524;9.044;2022-08-21T08:14:16;0.85;;;0.77;;
13386;SDS011;6763;48.524;9.044;2022-08-21T08:16:42;1.88;;;1.00;;
13386;SDS011;6763;48.524;9.044;2022-08-21T08:19:07;1.92;;;1.02;;
13386;SDS011;6763;48.524;9.044;2022-08-21T08:21:33;1.15;;;0.80;;
13386;SDS011;6763;48.524;9.044;2022-08-21T08:23:59;0.90;;;0.90;;
13386;SDS011;6763;48.524;9.044;2022-08-21T08:26:25;1.00;;;0.90;;
13386;SDS011;6763;48.524;9.044;2022-08-21T08:28:51;1.50;;;1.27;;
13386;SDS011;6763;48.524;9.044;2022-08-21T08:31:16;1.60;;;1.10;;
13386;SDS011;6763;48.524;9.044;2022-08-21T08:33:42;0.80;;;0.80;;
13386;SDS011;6763;48.524;9.044;2022-08-21T08:36:12;1.15;;;1.10;;
13386;SDS011;6763;48.524;9.044;2022-08-21T08:38:42;1.23;;;1.10;;
13386;SDS011;6763;48.524;9.044;2022-08-21T08:43:42;1.30;;;1.20;;
13386;SDS011;6763;48.524;9.044;2022-08-21T08:46:15;3.70;;;1.02;;
13386;SDS011;6763;48.524;9.044;2022-08-21T08:48:54;0.95;;;0.88;;
13386;SDS011;6763;48.524;9.044;2022-08-21T08:51:44;1.45;;;1.08;;
13386;SDS011;6763;48.524;9.044;2022-08-21T08:54:35;1.67;;;1.13;;
13386;SDS011;6763;48.524;9.044;2022-08-21T08:57:02;1.60;;;1.20;;
13386;SDS011;6763;48.524;9.044;2022-08-21T08:59:38;2.53;;;1.25;;
13386;SDS011;6763;48.524;9.044;2022-08-21T09:02:06;1.33;;;1.10;;
13386;SDS011;6763;48.524;9.044;2022-08-21T09:04:36;1.08;;;0.95;;
13386;SDS011;6763;48.524;9.044;2022-08-21T09:09:56;1.08;;;0.98;;
13386;SDS011;6763;48.524;9.044;2022-08-21T09:26:07;0.95;;;0.93;;
13386;SDS011;6763;48.524;9.044;2022-08-21T09:28:38;1.40;;;0.90;;
13386;SDS011;6763;48.524;9.044;2022-08-21T09:31:06;1.10;;;1.00;;
13386;SDS011;6763;48.524;9.044;2022-08-21T09:33:33;1.75;;;1.10;;
13386;SDS011;6763;48.524;9.044;2022-08-21T09:35:59;1.90;;;1.00;;
13386;SDS011;6763;48.524;9.044;2022-08-21T09:38:29;2.05;;;1.08;;
13386;SDS011;6763;48.524;9.044;2022-08-21T09:41:01;0.70;;;0.70;;
13386;SDS011;6763;48.524;9.044;2022-08-21T09:43:36;1.20;;;0.98;;
13386;SDS011;6763;48.524;9.044;2022-08-21T09:46:23;1.30;;;1.00;;
13386;SDS011;6763;48.524;9.044;2022-08-21T09:48:51;1.00;;;0.90;;
13386;SDS011;6763;48.524;9.044;2022-08-21T09:51:21;1.55;;;1.02;;
13386;SDS011;6763;48.524;9.044;2022-08-21T09:53:53;0.70;;;0.70;;
13386;SDS011;6763;48.524;9.044;2022-08-21T09:56:33;1.58;;;1.05;;
13386;SDS011;6763;48.524;9.044;2022-08-21T09:59:32;1.38;;;0.88;;
13386;SDS011;6763;48.524;9.044;2022-08-21T10:02:01;1.20;;;1.02;;
13386;SDS011;6763;48.524;9.044;2022-08-21T10:04:42;1.25;;;1.10;;
13386;SDS011;6763;48.524;9.044;2022-08-21T10:07:15;1.02;;;0.90;;
13386;SDS011;6763;48.524;9.044;2022-08-21T10:09:41;1.40;;;0.90;;
13386;SDS011;6763;48.524;9.044;2022-08-21T10:17:16;0.77;;;0.77;;
13386;SDS011;6763;48.524;9.044;2022-08-21T10:27:39;0.70;;;0.70;;
13386;SDS011;6763;48.524;9.044;2022-08-21T10:30:36;1.02;;;0.80;;
13386;SDS011;6763;48.524;9.044;2022-08-21T10:46:11;0.82;;;0.82;;
13386;SDS011;6763;48.524;9.044;2022-08-21T10:48:47;1.23;;;0.90;;
13386;SDS011;6763;48.524;9.044;2022-08-21T10:51:26;0.80;;;0.70;;
13386;SDS011;6763;48.524;9.044;2022-08-21T10:54:17;1.20;;;0.85;;
13386;SDS011;6763;48.524;9.044;2022-08-21T10:56:54;1.02;;;0.90;;
13386;SDS011;6763;48.524;9.044;2022-08-21T10:59:28;1.05;;;0.88;;
13386;SDS011;6763;48.524;9.044;2022-08-21T11:04:41;2.08;;;0.80;;
13386;SDS011;6763;48.524;9.044;2022-08-21T11:10:17;0.80;;;0.80;;
13386;SDS011;6763;48.524;9.044;2022-08-21T11:16:21;0.75;;;0.75;;
13386;SDS011;6763;48.524;9.044;2022-08-21T11:18:38;0.68;;;0.68;;
13386;SDS011;6763;48.524;9.044;2022-08-21T11:21:25;0.80;;;0.80;;
13386;SDS011;6763;48.524;9.044;2022-08-21T11:29:45;0.65;;;0.65;;
13386;SDS011;6763;48.524;9.044;2022-08-21T11:35:13;0.85;;;0.82;;
13386;SDS011;6763;48.524;9.044;2022-08-21T11:43:28;0.95;;;0.80;;
13386;SDS011;6763;48.524;9.044;2022-08-21T11:46:15;1.05;;;0.80;;
13386;SDS011;6763;48.524;9.044;2022-08-21T11:49:06;1.65;;;1.02;;
13386;SDS011;6763;48.524;9.044;2022-08-21T11:51:57;0.75;;;0.70;;
13386;SDS011;6763;48.524;9.044;2022-08-21T11:54:33;0.80;;;0.80;;
13386;SDS011;6763;48.524;9.044;2022-08-21T11:57:20;0.60;;;0.60;;
13386;SDS011;6763;48.524;9.044;2022-08-21T12:00:03;1.08;;;0.80;;
13386;SDS011;6763;48.524;9.044;2022-08-21T12:02:34;0.80;;;0.70;;
13386;SDS011;6763;48.524;9.044;2022-08-21T12:05:22;1.00;;;0.80;;
13386;SDS011;6763;48.524;9.044;2022-08-21T12:08:45;1.23;;;1.00;;
13386;SDS011;6763;48.524;9.044;2022-08-21T12:14:00;0.70;;;0.70;;
13386;SDS011;6763;48.524;9.044;2022-08-21T12:16:39;0.60;;;0.60;;
13386;SDS011;6763;48.524;9.044;2022-08-21T12:19:07;0.75;;;0.70;;
13386;SDS011;6763;48.524;9.044;2022-08-21T12:24:39;0.50;;;0.50;;
13386;SDS011;6763;48.524;9.044;2022-08-21T12:29:56;0.88;;;0.70;;
13386;SDS011;6763;48.524;9.044;2022-08-21T12:35:11;0.85;;;0.85;;
13386;SDS011;6763;48.524;9.044;2022-08-21T12:37:59;0.80;;;0.55;;
13386;SDS011;6763;48.524;9.044;2022-08-21T12:40:37;0.77;;;0.60;;
13386;SDS011;6763;48.524;9.044;2022-08-21T12:43:05;0.60;;;0.60;;
13386;SDS011;6763;48.524;9.044;2022-08-21T12:45:41;1.05;;;0.70;;
13386;SDS011;6763;48.524;9.044;2022-08-21T12:53:48;0.70;;;0.70;;
13386;SDS011;6763;48.524;9.044;2022-08-21T12:56:18;0.60;;;0.60;;
13386;SDS011;6763;48.524;9.044;2022-08-21T12:58:46;1.58;;;0.80;;
13386;SDS011;6763;48.524;9.044;2022-08-21T13:01:24;1.10;;;0.77;;
13386;SDS011;6763;48.524;9.044;2022-08-21T13:03:55;0.80;;;0.75;;
13386;SDS011;6763;48.524;9.044;2022-08-21T13:06:24;0.63;;;0.63;;
13386;SDS011;6763;48.524;9.044;2022-08-21T13:08:54;1.00;;;0.80;;
13386;SDS011;6763;48.524;9.044;2022-08-21T13:11:24;0.75;;;0.70;;
13386;SDS011;6763;48.524;9.044;2022-08-21T13:13:51;0.80;;;0.70;;
13386;SDS011;6763;48.524;9.044;2022-08-21T13:16:28;1.13;;;0.95;;
13386;SDS011;6763;48.524;9.044;2022-08-21T13:18:56;0.57;;;0.57;;
13386;SDS011;6763;48.524;9.044;2022-08-21T13:21:43;1.63;;;0.73;;
13386;SDS011;6763;48.524;9.044;2022-08-21T13:24:14;1.10;;;0.60;;
13386;SDS011;6763;48.524;9.044;2022-08-21T13:26:48;0.82;;;0.80;;
13386;SDS011;6763;48.524;9.044;2022-08-21T13:29:14;0.88;;;0.80;;
13386;SDS011;6763;48.524;9.044;2022-08-21T13:31:54;1.20;;;0.70;;
13386;SDS011;6763;48.524;9.044;2022-08-21T13:34:25;0.75;;;0.68;;
13386;SDS011;6763;48.524;9.044;2022-08-21T13:36:59;1.38;;;0.93;;
13386;SDS011;6763;48.524;9.044;2022-08-21T13:39:27;0.52;;;0.52;;
13386;SDS011;6763;48.524;9.044;2022-08-21T13:41:54;0.70;;;0.60;;
13386;SDS011;6763;48.524;9.044;2022-08-21T13:44:22;0.90;;;0.80;;
13386;SDS011;6763;48.524;9.044;2022-08-21T13:46:57;0.95;;;0.82;;
13386;SDS011;6763;48.524;9.044;2022-08-21T13:49:27;0.68;;;0.68;;
13386;SDS011;6763;48.524;9.044;2022-08-21T13:51:56;0.77;;;0.77;;
13386;SDS011;6763;48.524;9.044;2022-08-21T13:54:23;0.77;;;0.77;;
13386;SDS011;6763;48.524;9.044;2022-08-21T13:56:51;0.85;;;0.77;;
13386;SDS011;6763;48.524;9.044;2022-08-21T13:59:28;1.58;;;0.80;;
13386;SDS011;6763;48.524;9.044;2022-08-21T14:02:18;0.88;;;0.63;;
13386;SDS011;6763;48.524;9.044;2022-08-21T14:04:44;1.88;;;1.10;;
13386;SDS011;6763;48.524;9.044;2022-08-21T14:07:18;2.03;;;1.02;;
13386;SDS011;6763;48.524;9.044;2022-08-21T14:09:49;1.00;;;0.90;;
13386;SDS011;6763;48.524;9.044;2022-08-21T14:12:17;1.85;;;0.77;;
13386;SDS011;6763;48.524;9.044;2022-08-21T14:14:51;0.77;;;0.77;;
13386;SDS011;6763;48.524;9.044;2022-08-21T14:17:27;0.80;;;0.80;;
13386;SDS011;6763;48.524;9.044;2022-08-21T14:19:57;1.10;;;0.82;;
13386;SDS011;6763;48.524;9.044;2022-08-21T14:22:43;1.00;;;0.80;;
13386;SDS011;6763;48.524;9.044;2022-08-21T14:25:12;0.70;;;0.70;;
13386;SDS011;6763;48.524;9.044;2022-08-21T14:30:40;0.60;;;0.60;;
13386;SDS011;6763;48.524;9.044;2022-08-21T14:33:08;1.00;;;0.80;;
13386;SDS011;6763;48.524;9.044;2022-08-21T14:35:36;0.75;;;0.70;;
13386;SDS011;6763;48.524;9.044;2022-08-21T14:38:02;0.70;;;0.70;;
13386;SDS011;6763;48.524;9.044;2022-08-21T14:40:37;1.10;;;1.00;;
13386;SDS011;6763;48.524;9.044;2022-08-21T14:43:02;0.80;;;0.75;;
13386;SDS011;6763;48.524;9.044;2022-08-21T14:45:29;0.90;;;0.75;;
13386;SDS011;6763;48.524;9.044;2022-08-21T14:47:56;2.20;;;0.70;;
13386;SDS011;6763;48.524;9.044;2022-08-21T14:50:22;0.88;;;0.88;;
13386;SDS011;6763;48.524;9.044;2022-08-21T14:52:48;0.52;;;0.52;;
13386;SDS011;6763;48.524;9.044;2022-08-21T14:55:14;0.90;;;0.73;;
13386;SDS011;6763;48.524;9.044;2022-08-21T14:57:44;1.75;;;0.73;;
13386;SDS011;6763;48.524;9.044;2022-08-21T15:00:12;0.93;;;0.70;;
13386;SDS011;6763;48.524;9.044;2022-08-21T15:02:39;1.20;;;0.60;;
13386;SDS011;6763;48.524;9.044;2022-08-21T15:05:04;0.98;;;0.60;;
13386;SDS011;6763;48.524;9.044;2022-08-21T15:07:30;1.13;;;0.85;;
13386;SDS011;6763;48.524;9.044;2022-08-21T15:09:56;0.70;;;0.70;;
13386;SDS011;6763;48.524;9.044;2022-08-21T15:12:21;2.95;;;0.80;;
13386;SDS011;6763;48.524;9.044;2022-08-21T15:14:47;0.73;;;0.68;;
13386;SDS011;6763;48.524;9.044;2022-08-21T15:17:12;0.70;;;0.70;;
13386;SDS011;6763;48.524;9.044;2022-08-21T15:19:38;1.10;;;1.00;;
13386;SDS011;6763;48.524;9.044;2022-08-21T15:22:04;1.00;;;0.80;;
13386;SDS011;6763;48.524;9.044;2022-08-21T15:24:29;0.88;;;0.70;;
13386;SDS011;6763;48.524;9.044;2022-08-21T15:26:55;0.65;;;0.65;;
13386;SDS011;6763;48.524;9.044;2022-08-21T15:29:21;1.52;;;1.42;;
13386;SDS011;6763;48.524;9.044;2022-08-21T15:31:54;1.25;;;1.00;;
13386;SDS011;6763;48.524;9.044;2022-08-21T15:34:20;1.30;;;0.77;;
13386;SDS011;6763;48.524;9.044;2022-08-21T15:36:46;1.38;;;0.80;;
13386;SDS011;6763;48.524;9.044;2022-08-21T15:39:11;1.60;;;1.00;;
13386;SDS011;6763;48.524;9.044;2022-08-21T15:41:37;0.68;;;0.68;;
13386;SDS011;6763;48.524;9.044;2022-08-21T15:44:02;1.08;;;0.77;;
13386;SDS011;6763;48.524;9.044;2022-08-21T15:46:28;10.48;;;7.70;;
13386;SDS011;6763;48.524;9.044;2022-08-21T15:48:53;1.17;;;0.90;;
13386;SDS011;6763;48.524;9.044;2022-08-21T15:51:18;0.60;;;0.60;;
13386;SDS011;6763;48.524;9.044;2022-08-21T15:53:44;2.60;;;0.98;;
13386;SDS011;6763;48.524;9.044;2022-08-21T15:56:24;0.90;;;0.80;;
13386;SDS011;6763;48.524;9.044;2022-08-21T15:58:51;1.17;;;0.85;;
13386;SDS011;6763;48.524;9.044;2022-08-21T16:01:23;2.08;;;1.80;;
13386;SDS011;6763;48.524;9.044;2022-08-21T16:03:49;1.77;;;1.30;;
13386;SDS011;6763;48.524;9.044;2022-08-21T16:06:17;0.80;;;0.80;;
13386;SDS011;6763;48.524;9.044;2022-08-21T16:08:43;1.00;;;0.98;;
13386;SDS011;6763;48.524;9.044;2022-08-21T16:11:08;1.10;;;0.90;;
13386;SDS011;6763;48.524;9.044;2022-08-21T16:13:38;1.63;;;1.10;;
13386;SDS011;6763;48.524;9.044;2022-08-21T16:16:07;1.60;;;1.20;;
13386;SDS011;6763;48.524;9.044;2022-08-21T16:18:35;1.17;;;0.82;;
13386;SDS011;6763;48.524;9.044;2022-08-21T16:21:01;1.20;;;0.80;;
13386;SDS011;6763;48.524;9.044;2022-08-21T16:23:27;0.70;;;0.70;;
13386;SDS011;6763;48.524;9.044;2022-08-21T16:25:52;1.23;;;1.00;;
13386;SDS011;6763;48.524;9.044;2022-08-21T16:28:18;1.25;;;0.80;;
13386;SDS011;6763;48.524;9.044;2022-08-21T16:30:46;1.00;;;0.90;;
13386;SDS011;6763;48.524;9.044;2022-08-21T16:33:35;0.80;;;0.80;;
13386;SDS011;6763;48.524;9.044;2022-08-21T16:36:09;0.80;;;0.80;;
13386;SDS011;6763;48.524;9.044;2022-08-21T16:38:35;0.80;;;0.80;;
13386;SDS011;6763;48.524;9.044;2022-08-21T16:41:02;1.80;;;1.00;;
13386;SDS011;6763;48.524;9.044;2022-08-21T16:43:33;1.33;;;0.82;;
13386;SDS011;6763;48.524;9.044;2022-08-21T16:45:59;1.20;;;0.80;;